sensor_id;sensor_type;location;lat;lon;timestamp;P1;durP1;ratioP1;P2;durP2;ratioP2
20855;SDS011;63058;49.424;8.420;2022-11-18T00:00:54;2.92;;;0.60;;
20855;SDS011;63058;49.424;8.420;2022-11-18T00:03:20;1.50;;;0.70;;
20855;SDS011;63058;49.424;8.420;2022-11-18T00:05:53;1.75;;;0.80;;
20855;SDS011;63058;49.424;8.420;2022-11-18T00:08:20;2.35;;;0.80;;
20855;SDS011;63058;49.424;8.420;2022-11-18T00:10:46;0.95;;;0.60;;
20855;SDS011;63058;49.424;8.420;2022-11-18T00:13:12;1.75;;;0.65;;
20855;SDS011;63058;49.424;8.420;2022-11-18T00:16:05;1.83;;;0.70;;
20855;SDS011;63058;49.424;8.420;2022-11-18T00:18:33;2.17;;;0.57;;
20855;SDS011;63058;49.424;8.420;2022-11-18T00:21:03;1.38;;;0.73;;
20855;SDS011;63058;49.424;8.420;2022-11-18T00:23:33;0.68;;;0.50;;
20855;SDS011;63058;49.424;8.420;2022-11-18T00:26:06;1.33;;;0.70;;
20855;SDS011;63058;49.424;8.420;2022-11-18T00:28:36;1.20;;;0.70;;
20855;SDS011;63058;49.424;8.420;2022-11-18T00:31:03;1.20;;;0.75;;
20855;SDS011;63058;49.424;8.420;2022-11-18T00:33:31;1.00;;;0.60;;
20855;SDS011;63058;49.424;8.420;2022-11-18T00:35:57;0.70;;;0.70;;
20855;SDS011;63058;49.424;8.420;2022-11-18T00:38:23;1.58;;;0.70;;
20855;SDS011;63058;49.424;8.420;2022-11-18T00:40:57;1.02;;;0.70;;
20855;SDS011;63058;49.424;8.420;2022-11-18T00:43:23;1.30;;;0.80;;
20855;SDS011;63058;49.424;8.420;2022-11-18T00:45:49;1.42;;;0.73;;
20855;SDS011;63058;49.424;8.420;2022-11-18T00:48:14;1.13;;;0.77;;
20855;SDS011;63058;49.424;8.420;2022-11-18T00:50:45;1.63;;;0.70;;
20855;SDS011;63058;49.424;8.420;2022-11-18T00:53:14;1.02;;;0.60;;
20855;SDS011;63058;49.424;8.420;2022-11-18T00:55:41;1.48;;;0.63;;
20855;SDS011;63058;49.424;8.420;2022-11-18T00:58:06;1.25;;;0.60;;
20855;SDS011;63058;49.424;8.420;2022-11-18T01:00:32;1.30;;;0.60;;
20855;SDS011;63058;49.424;8.420;2022-11-18T01:02:57;1.45;;;0.60;;
20855;SDS011;63058;49.424;8.420;2022-11-18T01:05:23;1.98;;;0.60;;
20855;SDS011;63058;49.424;8.420;2022-11-18T01:07:48;1.10;;;0.70;;
20855;SDS011;63058;49.424;8.420;2022-11-18T01:10:14;0.70;;;0.60;;
20855;SDS011;63058;49.424;8.420;2022-11-18T01:12:41;1.15;;;0.73;;
20855;SDS011;63058;49.424;8.420;2022-11-18T01:15:25;1.27;;;0.70;;
20855;SDS011;63058;49.424;8.420;2022-11-18T01:17:50;1.38;;;0.80;;
20855;SDS011;63058;49.424;8.420;2022-11-18T01:20:16;0.82;;;0.75;;
20855;SDS011;63058;49.424;8.420;2022-11-18T01:22:42;2.22;;;0.80;;
20855;SDS011;63058;49.424;8.420;2022-11-18T01:25:07;2.13;;;0.50;;
20855;SDS011;63058;49.424;8.420;2022-11-18T01:27:33;1.10;;;0.70;;
20855;SDS011;63058;49.424;8.420;2022-11-18T01:29:59;1.48;;;0.60;;
20855;SDS011;63058;49.424;8.420;2022-11-18T01:32:24;1.15;;;0.70;;
20855;SDS011;63058;49.424;8.420;2022-11-18T01:34:51;0.88;;;0.60;;
20855;SDS011;63058;49.424;8.420;2022-11-18T01:37:17;1.20;;;0.70;;
20855;SDS011;63058;49.424;8.420;2022-11-18T01:39:42;1.25;;;0.60;;
20855;SDS011;63058;49.424;8.420;2022-11-18T01:42:11;1.42;;;0.80;;
20855;SDS011;63058;49.424;8.420;2022-11-18T01:44:59;0.60;;;0.60;;
20855;SDS011;63058;49.424;8.420;2022-11-18T01:48:02;0.70;;;0.52;;
20855;SDS011;63058;49.424;8.420;2022-11-18T01:50:28;1.27;;;0.68;;
20855;SDS011;63058;49.424;8.420;2022-11-18T01:52:56;0.80;;;0.77;;
20855;SDS011;63058;49.424;8.420;2022-11-18T01:55:28;0.82;;;0.50;;
20855;SDS011;63058;49.424;8.420;2022-11-18T01:58:00;1.10;;;0.70;;
20855;SDS011;63058;49.424;8.420;2022-11-18T02:00:34;1.00;;;0.70;;
20855;SDS011;63058;49.424;8.420;2022-11-18T02:03:01;1.40;;;0.82;;
20855;SDS011;63058;49.424;8.420;2022-11-18T02:05:27;0.95;;;0.70;;
20855;SDS011;63058;49.424;8.420;2022-11-18T02:07:54;0.77;;;0.73;;
20855;SDS011;63058;49.424;8.420;2022-11-18T02:10:22;1.27;;;1.02;;
20855;SDS011;63058;49.424;8.420;2022-11-18T02:12:49;1.27;;;1.10;;
20855;SDS011;63058;49.424;8.420;2022-11-18T02:15:17;0.90;;;0.80;;
20855;SDS011;63058;49.424;8.420;2022-11-18T02:20:29;1.60;;;0.77;;
20855;SDS011;63058;49.424;8.420;2022-11-18T02:33:50;2.15;;;1.00;;
20855;SDS011;63058;49.424;8.420;2022-11-18T02:36:39;1.83;;;1.13;;
20855;SDS011;63058;49.424;8.420;2022-11-18T02:39:38;1.10;;;1.00;;
20855;SDS011;63058;49.424;8.420;2022-11-18T02:42:08;1.63;;;0.90;;
20855;SDS011;63058;49.424;8.420;2022-11-18T02:44:37;2.50;;;1.10;;
20855;SDS011;63058;49.424;8.420;2022-11-18T02:47:07;0.98;;;0.80;;
20855;SDS011;63058;49.424;8.420;2022-11-18T02:49:37;1.35;;;1.00;;
20855;SDS011;63058;49.424;8.420;2022-11-18T02:52:06;1.13;;;0.90;;
20855;SDS011;63058;49.424;8.420;2022-11-18T02:54:34;1.50;;;1.10;;
20855;SDS011;63058;49.424;8.420;2022-11-18T02:57:03;1.52;;;1.17;;
20855;SDS011;63058;49.424;8.420;2022-11-18T02:59:30;4.38;;;1.08;;
20855;SDS011;63058;49.424;8.420;2022-11-18T03:01:55;1.58;;;1.10;;
20855;SDS011;63058;49.424;8.420;2022-11-18T03:04:21;1.40;;;1.30;;
20855;SDS011;63058;49.424;8.420;2022-11-18T03:06:52;2.58;;;1.30;;
20855;SDS011;63058;49.424;8.420;2022-11-18T03:09:37;1.67;;;1.27;;
20855;SDS011;63058;49.424;8.420;2022-11-18T03:12:10;2.30;;;1.58;;
20855;SDS011;63058;49.424;8.420;2022-11-18T03:14:51;1.80;;;1.38;;
20855;SDS011;63058;49.424;8.420;2022-11-18T03:17:45;2.72;;;1.48;;
20855;SDS011;63058;49.424;8.420;2022-11-18T03:20:17;4.28;;;1.83;;
20855;SDS011;63058;49.424;8.420;2022-11-18T03:23:11;3.30;;;1.60;;
20855;SDS011;63058;49.424;8.420;2022-11-18T03:26:04;3.38;;;1.73;;
20855;SDS011;63058;49.424;8.420;2022-11-18T03:33:57;2.20;;;1.42;;
20855;SDS011;63058;49.424;8.420;2022-11-18T03:36:27;3.30;;;1.60;;
20855;SDS011;63058;49.424;8.420;2022-11-18T03:38:58;3.25;;;1.70;;
20855;SDS011;63058;49.424;8.420;2022-11-18T03:46:31;3.15;;;2.15;;
20855;SDS011;63058;49.424;8.420;2022-11-18T03:49:04;2.35;;;2.10;;
20855;SDS011;63058;49.424;8.420;2022-11-18T03:51:35;3.00;;;2.03;;
20855;SDS011;63058;49.424;8.420;2022-11-18T03:54:09;4.35;;;2.28;;
20855;SDS011;63058;49.424;8.420;2022-11-18T03:56:40;2.17;;;1.98;;
20855;SDS011;63058;49.424;8.420;2022-11-18T03:59:12;2.60;;;2.13;;
20855;SDS011;63058;49.424;8.420;2022-11-18T04:04:19;2.88;;;1.83;;
20855;SDS011;63058;49.424;8.420;2022-11-18T04:06:53;2.42;;;2.13;;
20855;SDS011;63058;49.424;8.420;2022-11-18T04:09:29;3.10;;;2.10;;
20855;SDS011;63058;49.424;8.420;2022-11-18T04:12:04;2.65;;;2.17;;
20855;SDS011;63058;49.424;8.420;2022-11-18T04:14:35;3.13;;;1.83;;
20855;SDS011;63058;49.424;8.420;2022-11-18T04:17:11;2.50;;;1.92;;
20855;SDS011;63058;49.424;8.420;2022-11-18T04:19:38;2.10;;;1.70;;
20855;SDS011;63058;49.424;8.420;2022-11-18T04:22:04;2.13;;;1.75;;
20855;SDS011;63058;49.424;8.420;2022-11-18T04:24:32;2.47;;;1.60;;
20855;SDS011;63058;49.424;8.420;2022-11-18T04:26:58;1.45;;;1.35;;
20855;SDS011;63058;49.424;8.420;2022-11-18T04:29:24;1.77;;;1.40;;
20855;SDS011;63058;49.424;8.420;2022-11-18T04:31:49;2.97;;;1.77;;
20855;SDS011;63058;49.424;8.420;2022-11-18T04:34:15;2.13;;;1.40;;
20855;SDS011;63058;49.424;8.420;2022-11-18T04:36:41;1.65;;;1.00;;
20855;SDS011;63058;49.424;8.420;2022-11-18T04:39:06;0.73;;;0.60;;
20855;SDS011;63058;49.424;8.420;2022-11-18T04:41:32;4.45;;;0.80;;
20855;SDS011;63058;49.424;8.420;2022-11-18T04:44:16;1.73;;;0.60;;
20855;SDS011;63058;49.424;8.420;2022-11-18T04:46:42;1.85;;;0.50;;
20855;SDS011;63058;49.424;8.420;2022-11-18T04:49:09;0.98;;;0.50;;
20855;SDS011;63058;49.424;8.420;2022-11-18T04:51:36;1.75;;;0.60;;
20855;SDS011;63058;49.424;8.420;2022-11-18T04:54:02;1.17;;;0.47;;
20855;SDS011;63058;49.424;8.420;2022-11-18T04:56:28;2.78;;;0.50;;
20855;SDS011;63058;49.424;8.420;2022-11-18T04:58:54;0.80;;;0.40;;
20855;SDS011;63058;49.424;8.420;2022-11-18T05:01:20;1.10;;;0.30;;
20855;SDS011;63058;49.424;8.420;2022-11-18T05:03:46;0.60;;;0.40;;
20855;SDS011;63058;49.424;8.420;2022-11-18T05:06:11;0.50;;;0.30;;
20855;SDS011;63058;49.424;8.420;2022-11-18T05:08:38;0.20;;;0.20;;
20855;SDS011;63058;49.424;8.420;2022-11-18T05:11:06;1.08;;;0.38;;
20855;SDS011;63058;49.424;8.420;2022-11-18T05:13:51;0.65;;;0.50;;
20855;SDS011;63058;49.424;8.420;2022-11-18T05:16:17;0.30;;;0.30;;
20855;SDS011;63058;49.424;8.420;2022-11-18T05:18:43;0.30;;;0.30;;
20855;SDS011;63058;49.424;8.420;2022-11-18T05:21:09;0.38;;;0.30;;
20855;SDS011;63058;49.424;8.420;2022-11-18T05:23:35;0.60;;;0.30;;
20855;SDS011;63058;49.424;8.420;2022-11-18T05:26:04;0.57;;;0.32;;
20855;SDS011;63058;49.424;8.420;2022-11-18T05:28:31;1.55;;;0.40;;
20855;SDS011;63058;49.424;8.420;2022-11-18T05:30:57;0.57;;;0.32;;
20855;SDS011;63058;49.424;8.420;2022-11-18T05:33:23;0.70;;;0.30;;
20855;SDS011;63058;49.424;8.420;2022-11-18T05:35:48;0.20;;;0.20;;
20855;SDS011;63058;49.424;8.420;2022-11-18T05:38:14;0.30;;;0.30;;
20855;SDS011;63058;49.424;8.420;2022-11-18T05:40:43;0.40;;;0.20;;
20855;SDS011;63058;49.424;8.420;2022-11-18T05:43:09;0.75;;;0.20;;
20855;SDS011;63058;49.424;8.420;2022-11-18T05:45:35;0.57;;;0.20;;
20855;SDS011;63058;49.424;8.420;2022-11-18T05:48:01;0.30;;;0.10;;
20855;SDS011;63058;49.424;8.420;2022-11-18T05:50:28;1.13;;;0.30;;
20855;SDS011;63058;49.424;8.420;2022-11-18T05:52:58;0.82;;;0.38;;
20855;SDS011;63058;49.424;8.420;2022-11-18T05:55:24;0.28;;;0.13;;
20855;SDS011;63058;49.424;8.420;2022-11-18T05:57:54;0.73;;;0.30;;
20855;SDS011;63058;49.424;8.420;2022-11-18T06:00:19;0.65;;;0.30;;
20855;SDS011;63058;49.424;8.420;2022-11-18T06:02:45;0.10;;;0.10;;
20855;SDS011;63058;49.424;8.420;2022-11-18T06:05:13;0.25;;;0.20;;
20855;SDS011;63058;49.424;8.420;2022-11-18T06:07:42;0.22;;;0.20;;
20855;SDS011;63058;49.424;8.420;2022-11-18T06:10:14;0.93;;;0.20;;
20855;SDS011;63058;49.424;8.420;2022-11-18T06:12:53;0.47;;;0.30;;
20855;SDS011;63058;49.424;8.420;2022-11-18T06:15:32;3.20;;;0.50;;
20855;SDS011;63058;49.424;8.420;2022-11-18T06:18:04;0.43;;;0.40;;
20855;SDS011;63058;49.424;8.420;2022-11-18T06:20:37;1.25;;;0.50;;
20855;SDS011;63058;49.424;8.420;2022-11-18T06:23:04;1.23;;;0.50;;
20855;SDS011;63058;49.424;8.420;2022-11-18T06:25:29;0.50;;;0.35;;
20855;SDS011;63058;49.424;8.420;2022-11-18T06:27:56;0.30;;;0.30;;
20855;SDS011;63058;49.424;8.420;2022-11-18T06:30:25;0.35;;;0.30;;
20855;SDS011;63058;49.424;8.420;2022-11-18T06:32:51;1.90;;;0.25;;
20855;SDS011;63058;49.424;8.420;2022-11-18T06:35:16;0.90;;;0.20;;
20855;SDS011;63058;49.424;8.420;2022-11-18T06:37:42;0.50;;;0.30;;
20855;SDS011;63058;49.424;8.420;2022-11-18T06:40:08;0.50;;;0.30;;
20855;SDS011;63058;49.424;8.420;2022-11-18T06:42:34;0.52;;;0.30;;
20855;SDS011;63058;49.424;8.420;2022-11-18T06:45:18;0.28;;;0.10;;
20855;SDS011;63058;49.424;8.420;2022-11-18T06:47:43;0.30;;;0.20;;
20855;SDS011;63058;49.424;8.420;2022-11-18T06:50:09;0.20;;;0.20;;
20855;SDS011;63058;49.424;8.420;2022-11-18T06:52:35;0.20;;;0.10;;
20855;SDS011;63058;49.424;8.420;2022-11-18T06:55:00;0.30;;;0.20;;
20855;SDS011;63058;49.424;8.420;2022-11-18T06:57:26;0.25;;;0.17;;
20855;SDS011;63058;49.424;8.420;2022-11-18T06:59:51;0.38;;;0.20;;
20855;SDS011;63058;49.424;8.420;2022-11-18T07:02:17;0.45;;;0.20;;
20855;SDS011;63058;49.424;8.420;2022-11-18T07:04:46;0.30;;;0.30;;
20855;SDS011;63058;49.424;8.420;2022-11-18T07:07:11;0.38;;;0.30;;
20855;SDS011;63058;49.424;8.420;2022-11-18T07:09:37;1.50;;;0.30;;
20855;SDS011;63058;49.424;8.420;2022-11-18T07:12:02;0.35;;;0.30;;
20855;SDS011;63058;49.424;8.420;2022-11-18T07:14:29;0.50;;;0.30;;
20855;SDS011;63058;49.424;8.420;2022-11-18T07:16:55;0.52;;;0.30;;
20855;SDS011;63058;49.424;8.420;2022-11-18T07:19:21;0.63;;;0.30;;
20855;SDS011;63058;49.424;8.420;2022-11-18T07:21:46;0.35;;;0.25;;
20855;SDS011;63058;49.424;8.420;2022-11-18T07:24:13;1.30;;;0.40;;
20855;SDS011;63058;49.424;8.420;2022-11-18T07:26:40;0.50;;;0.32;;
20855;SDS011;63058;49.424;8.420;2022-11-18T07:29:06;1.05;;;0.47;;
20855;SDS011;63058;49.424;8.420;2022-11-18T07:31:32;1.13;;;0.35;;
20855;SDS011;63058;49.424;8.420;2022-11-18T07:34:01;0.30;;;0.20;;
20855;SDS011;63058;49.424;8.420;2022-11-18T07:36:28;0.40;;;0.30;;
20855;SDS011;63058;49.424;8.420;2022-11-18T07:38:54;1.00;;;0.40;;
20855;SDS011;63058;49.424;8.420;2022-11-18T07:41:23;0.93;;;0.38;;
20855;SDS011;63058;49.424;8.420;2022-11-18T07:43:53;0.35;;;0.25;;
20855;SDS011;63058;49.424;8.420;2022-11-18T07:46:24;0.60;;;0.38;;
20855;SDS011;63058;49.424;8.420;2022-11-18T07:48:54;0.47;;;0.38;;
20855;SDS011;63058;49.424;8.420;2022-11-18T07:51:21;1.27;;;0.60;;
20855;SDS011;63058;49.424;8.420;2022-11-18T07:53:49;0.75;;;0.45;;
20855;SDS011;63058;49.424;8.420;2022-11-18T07:56:16;1.25;;;0.68;;
20855;SDS011;63058;49.424;8.420;2022-11-18T07:58:42;1.48;;;0.50;;
20855;SDS011;63058;49.424;8.420;2022-11-18T08:01:18;0.73;;;0.40;;
20855;SDS011;63058;49.424;8.420;2022-11-18T08:03:46;0.57;;;0.50;;
20855;SDS011;63058;49.424;8.420;2022-11-18T08:06:13;1.50;;;0.70;;
20855;SDS011;63058;49.424;8.420;2022-11-18T08:08:41;0.85;;;0.60;;
20855;SDS011;63058;49.424;8.420;2022-11-18T08:11:11;0.88;;;0.50;;
20855;SDS011;63058;49.424;8.420;2022-11-18T08:13:39;1.67;;;0.40;;
20855;SDS011;63058;49.424;8.420;2022-11-18T08:16:11;2.05;;;0.50;;
20855;SDS011;63058;49.424;8.420;2022-11-18T08:18:38;0.60;;;0.40;;
20855;SDS011;63058;49.424;8.420;2022-11-18T08:21:04;0.82;;;0.60;;
20855;SDS011;63058;49.424;8.420;2022-11-18T08:23:30;0.70;;;0.45;;
20855;SDS011;63058;49.424;8.420;2022-11-18T08:26:03;0.65;;;0.47;;
20855;SDS011;63058;49.424;8.420;2022-11-18T08:28:30;0.77;;;0.50;;
20855;SDS011;63058;49.424;8.420;2022-11-18T08:30:56;0.38;;;0.32;;
20855;SDS011;63058;49.424;8.420;2022-11-18T08:33:22;0.63;;;0.50;;
20855;SDS011;63058;49.424;8.420;2022-11-18T08:35:48;0.43;;;0.43;;
20855;SDS011;63058;49.424;8.420;2022-11-18T08:38:14;0.52;;;0.40;;
20855;SDS011;63058;49.424;8.420;2022-11-18T08:40:40;1.25;;;0.50;;
20855;SDS011;63058;49.424;8.420;2022-11-18T08:43:10;0.70;;;0.40;;
20855;SDS011;63058;49.424;8.420;2022-11-18T08:45:37;1.08;;;0.50;;
20855;SDS011;63058;49.424;8.420;2022-11-18T08:48:03;0.68;;;0.40;;
20855;SDS011;63058;49.424;8.420;2022-11-18T08:50:29;1.40;;;0.60;;
20855;SDS011;63058;49.424;8.420;2022-11-18T08:52:55;0.50;;;0.43;;
20855;SDS011;63058;49.424;8.420;2022-11-18T08:55:20;2.50;;;0.50;;
20855;SDS011;63058;49.424;8.420;2022-11-18T08:57:46;0.63;;;0.50;;
20855;SDS011;63058;49.424;8.420;2022-11-18T09:00:12;1.80;;;0.63;;
20855;SDS011;63058;49.424;8.420;2022-11-18T09:02:38;0.50;;;0.50;;
20855;SDS011;63058;49.424;8.420;2022-11-18T09:05:04;0.70;;;0.55;;
20855;SDS011;63058;49.424;8.420;2022-11-18T09:07:30;0.80;;;0.60;;
20855;SDS011;63058;49.424;8.420;2022-11-18T09:09:55;2.65;;;0.80;;
20855;SDS011;63058;49.424;8.420;2022-11-18T09:12:21;1.05;;;0.70;;
20855;SDS011;63058;49.424;8.420;2022-11-18T09:14:47;1.42;;;0.70;;
20855;SDS011;63058;49.424;8.420;2022-11-18T09:17:12;0.60;;;0.60;;
20855;SDS011;63058;49.424;8.420;2022-11-18T09:19:39;1.10;;;0.55;;
20855;SDS011;63058;49.424;8.420;2022-11-18T09:22:05;1.10;;;0.63;;
20855;SDS011;63058;49.424;8.420;2022-11-18T09:24:31;1.75;;;0.60;;
20855;SDS011;63058;49.424;8.420;2022-11-18T09:26:58;0.52;;;0.50;;
20855;SDS011;63058;49.424;8.420;2022-11-18T09:29:23;0.82;;;0.70;;
20855;SDS011;63058;49.424;8.420;2022-11-18T09:31:50;1.00;;;0.70;;
20855;SDS011;63058;49.424;8.420;2022-11-18T09:34:19;0.68;;;0.55;;
20855;SDS011;63058;49.424;8.420;2022-11-18T09:36:45;1.75;;;0.50;;
20855;SDS011;63058;49.424;8.420;2022-11-18T09:39:11;1.25;;;0.60;;
20855;SDS011;63058;49.424;8.420;2022-11-18T09:47:17;1.48;;;0.80;;
20855;SDS011;63058;49.424;8.420;2022-11-18T09:49:56;2.08;;;0.90;;
20855;SDS011;63058;49.424;8.420;2022-11-18T09:55:30;1.40;;;1.10;;
20855;SDS011;63058;49.424;8.420;2022-11-18T09:58:01;1.10;;;1.00;;
20855;SDS011;63058;49.424;8.420;2022-11-18T10:00:28;1.30;;;0.90;;
20855;SDS011;63058;49.424;8.420;2022-11-18T10:03:00;1.13;;;0.80;;
20855;SDS011;63058;49.424;8.420;2022-11-18T10:05:30;1.10;;;0.90;;
20855;SDS011;63058;49.424;8.420;2022-11-18T10:24:29;6.10;;;0.80;;
20855;SDS011;63058;49.424;8.420;2022-11-18T10:26:59;1.52;;;0.85;;
20855;SDS011;63058;49.424;8.420;2022-11-18T10:29:25;0.70;;;0.70;;
20855;SDS011;63058;49.424;8.420;2022-11-18T10:31:53;1.50;;;0.60;;
20855;SDS011;63058;49.424;8.420;2022-11-18T10:34:19;2.15;;;0.70;;
20855;SDS011;63058;49.424;8.420;2022-11-18T10:37:06;1.65;;;0.80;;
20855;SDS011;63058;49.424;8.420;2022-11-18T10:39:48;2.35;;;0.80;;
20855;SDS011;63058;49.424;8.420;2022-11-18T10:42:40;3.15;;;0.93;;
20855;SDS011;63058;49.424;8.420;2022-11-18T10:45:14;0.77;;;0.50;;
20855;SDS011;63058;49.424;8.420;2022-11-18T10:50:35;0.88;;;0.70;;
20855;SDS011;63058;49.424;8.420;2022-11-18T10:53:04;0.80;;;0.80;;
20855;SDS011;63058;49.424;8.420;2022-11-18T10:55:31;1.13;;;0.90;;
20855;SDS011;63058;49.424;8.420;2022-11-18T10:57:59;1.88;;;1.00;;
20855;SDS011;63058;49.424;8.420;2022-11-18T11:00:38;2.42;;;1.17;;
20855;SDS011;63058;49.424;8.420;2022-11-18T11:03:28;2.42;;;1.50;;
20855;SDS011;63058;49.424;8.420;2022-11-18T11:09:24;2.13;;;1.27;;
20855;SDS011;63058;49.424;8.420;2022-11-18T11:14:49;0.98;;;0.82;;
20855;SDS011;63058;49.424;8.420;2022-11-18T11:17:37;1.48;;;1.10;;
20855;SDS011;63058;49.424;8.420;2022-11-18T11:20:32;1.77;;;0.75;;
20855;SDS011;63058;49.424;8.420;2022-11-18T11:22:59;3.45;;;0.88;;
20855;SDS011;63058;49.424;8.420;2022-11-18T11:25:32;2.53;;;1.00;;
20855;SDS011;63058;49.424;8.420;2022-11-18T11:28:25;2.42;;;1.00;;
20855;SDS011;63058;49.424;8.420;2022-11-18T11:33:51;1.67;;;0.80;;
20855;SDS011;63058;49.424;8.420;2022-11-18T11:39:10;1.10;;;0.63;;
20855;SDS011;63058;49.424;8.420;2022-11-18T11:45:14;2.33;;;1.00;;
20855;SDS011;63058;49.424;8.420;2022-11-18T11:50:52;2.38;;;0.90;;
20855;SDS011;63058;49.424;8.420;2022-11-18T12:01:38;2.42;;;0.85;;
20855;SDS011;63058;49.424;8.420;2022-11-18T12:07:14;1.15;;;0.70;;
20855;SDS011;63058;49.424;8.420;2022-11-18T12:15:53;1.55;;;0.82;;
20855;SDS011;63058;49.424;8.420;2022-11-18T12:22:00;1.90;;;0.60;;
20855;SDS011;63058;49.424;8.420;2022-11-18T12:26:41;2.00;;;0.95;;
20855;SDS011;63058;49.424;8.420;2022-11-18T12:31:43;1.88;;;0.68;;
20855;SDS011;63058;49.424;8.420;2022-11-18T12:36:53;3.13;;;0.90;;
20855;SDS011;63058;49.424;8.420;2022-11-18T12:42:01;1.00;;;0.60;;
20855;SDS011;63058;49.424;8.420;2022-11-18T12:44:47;2.40;;;1.00;;
20855;SDS011;63058;49.424;8.420;2022-11-18T12:47:15;2.20;;;0.80;;
20855;SDS011;63058;49.424;8.420;2022-11-18T12:54:53;1.38;;;0.50;;
20855;SDS011;63058;49.424;8.420;2022-11-18T12:57:26;0.52;;;0.50;;
20855;SDS011;63058;49.424;8.420;2022-11-18T13:00:14;1.27;;;0.60;;
20855;SDS011;63058;49.424;8.420;2022-11-18T13:02:49;1.10;;;0.70;;
20855;SDS011;63058;49.424;8.420;2022-11-18T13:05:20;2.00;;;0.77;;
20855;SDS011;63058;49.424;8.420;2022-11-18T13:08:09;1.80;;;0.60;;
20855;SDS011;63058;49.424;8.420;2022-11-18T13:10:43;2.90;;;0.70;;
20855;SDS011;63058;49.424;8.420;2022-11-18T13:15:59;1.70;;;0.73;;
20855;SDS011;63058;49.424;8.420;2022-11-18T13:18:48;1.92;;;0.70;;
20855;SDS011;63058;49.424;8.420;2022-11-18T13:21:26;2.67;;;0.98;;
20855;SDS011;63058;49.424;8.420;2022-11-18T13:24:12;2.22;;;0.80;;
20855;SDS011;63058;49.424;8.420;2022-11-18T13:26:43;2.22;;;0.80;;
20855;SDS011;63058;49.424;8.420;2022-11-18T13:34:54;2.47;;;0.90;;
20855;SDS011;63058;49.424;8.420;2022-11-18T13:37:31;3.70;;;1.00;;
20855;SDS011;63058;49.424;8.420;2022-11-18T13:40:01;1.67;;;0.80;;
20855;SDS011;63058;49.424;8.420;2022-11-18T13:42:27;1.60;;;0.88;;
20855;SDS011;63058;49.424;8.420;2022-11-18T13:44:55;4.15;;;1.13;;
20855;SDS011;63058;49.424;8.420;2022-11-18T13:53:10;1.90;;;0.93;;
20855;SDS011;63058;49.424;8.420;2022-11-18T13:55:53;2.50;;;0.80;;
20855;SDS011;63058;49.424;8.420;2022-11-18T14:01:18;4.22;;;0.90;;
20855;SDS011;63058;49.424;8.420;2022-11-18T14:03:52;3.40;;;0.90;;
20855;SDS011;63058;49.424;8.420;2022-11-18T14:06:28;3.42;;;1.05;;
20855;SDS011;63058;49.424;8.420;2022-11-18T14:14:40;3.10;;;0.80;;
20855;SDS011;63058;49.424;8.420;2022-11-18T14:19:44;4.32;;;1.10;;
20855;SDS011;63058;49.424;8.420;2022-11-18T14:22:25;3.95;;;0.90;;
20855;SDS011;63058;49.424;8.420;2022-11-18T14:24:53;2.45;;;1.00;;
20855;SDS011;63058;49.424;8.420;2022-11-18T14:27:40;3.03;;;1.05;;
20855;SDS011;63058;49.424;8.420;2022-11-18T14:30:25;5.05;;;0.90;;
20855;SDS011;63058;49.424;8.420;2022-11-18T14:33:02;2.30;;;0.70;;
20855;SDS011;63058;49.424;8.420;2022-11-18T14:35:28;4.22;;;1.00;;
20855;SDS011;63058;49.424;8.420;2022-11-18T14:37:54;3.75;;;1.13;;
20855;SDS011;63058;49.424;8.420;2022-11-18T14:40:19;2.88;;;1.10;;
20855;SDS011;63058;49.424;8.420;2022-11-18T14:42:45;3.40;;;1.00;;
20855;SDS011;63058;49.424;8.420;2022-11-18T14:45:10;1.73;;;0.95;;
20855;SDS011;63058;49.424;8.420;2022-11-18T14:47:36;2.42;;;0.93;;
20855;SDS011;63058;49.424;8.420;2022-11-18T14:50:04;3.08;;;1.25;;
20855;SDS011;63058;49.424;8.420;2022-11-18T14:52:36;2.55;;;0.95;;
20855;SDS011;63058;49.424;8.420;2022-11-18T14:55:02;4.90;;;1.10;;
20855;SDS011;63058;49.424;8.420;2022-11-18T14:57:29;3.50;;;0.98;;
20855;SDS011;63058;49.424;8.420;2022-11-18T14:59:55;4.75;;;0.90;;
20855;SDS011;63058;49.424;8.420;2022-11-18T15:02:20;3.35;;;1.33;;
20855;SDS011;63058;49.424;8.420;2022-11-18T15:04:46;4.45;;;1.40;;
20855;SDS011;63058;49.424;8.420;2022-11-18T15:07:13;2.67;;;1.42;;
20855;SDS011;63058;49.424;8.420;2022-11-18T15:09:40;4.85;;;1.65;;
20855;SDS011;63058;49.424;8.420;2022-11-18T15:12:06;3.75;;;1.70;;
20855;SDS011;63058;49.424;8.420;2022-11-18T15:14:31;4.30;;;1.60;;
20855;SDS011;63058;49.424;8.420;2022-11-18T15:16:58;3.88;;;1.40;;
20855;SDS011;63058;49.424;8.420;2022-11-18T15:19:24;8.23;;;1.33;;
20855;SDS011;63058;49.424;8.420;2022-11-18T15:21:50;2.83;;;1.05;;
20855;SDS011;63058;49.424;8.420;2022-11-18T15:24:15;2.80;;;1.27;;
20855;SDS011;63058;49.424;8.420;2022-11-18T15:26:42;3.45;;;1.05;;
20855;SDS011;63058;49.424;8.420;2022-11-18T15:29:18;4.97;;;1.20;;
20855;SDS011;63058;49.424;8.420;2022-11-18T15:31:46;2.97;;;0.88;;
20855;SDS011;63058;49.424;8.420;2022-11-18T15:34:12;3.10;;;1.15;;
20855;SDS011;63058;49.424;8.420;2022-11-18T15:36:38;3.42;;;1.30;;
20855;SDS011;63058;49.424;8.420;2022-11-18T15:39:04;2.63;;;1.00;;
20855;SDS011;63058;49.424;8.420;2022-11-18T15:41:30;3.28;;;1.10;;
20855;SDS011;63058;49.424;8.420;2022-11-18T15:43:56;3.78;;;1.20;;
20855;SDS011;63058;49.424;8.420;2022-11-18T15:46:24;2.75;;;1.20;;
20855;SDS011;63058;49.424;8.420;2022-11-18T15:48:51;1.98;;;1.00;;
20855;SDS011;63058;49.424;8.420;2022-11-18T15:51:20;1.88;;;1.05;;
20855;SDS011;63058;49.424;8.420;2022-11-18T15:53:47;5.65;;;0.95;;
20855;SDS011;63058;49.424;8.420;2022-11-18T15:58:38;3.47;;;1.50;;
20855;SDS011;63058;49.424;8.420;2022-11-18T16:01:03;2.78;;;1.60;;
20855;SDS011;63058;49.424;8.420;2022-11-18T16:03:29;3.45;;;1.92;;
20855;SDS011;63058;49.424;8.420;2022-11-18T16:05:54;3.95;;;2.10;;
20855;SDS011;63058;49.424;8.420;2022-11-18T16:08:20;3.80;;;2.42;;
20855;SDS011;63058;49.424;8.420;2022-11-18T16:10:46;3.53;;;1.58;;
20855;SDS011;63058;49.424;8.420;2022-11-18T16:13:30;4.10;;;1.80;;
20855;SDS011;63058;49.424;8.420;2022-11-18T16:15:55;2.03;;;1.58;;
20855;SDS011;63058;49.424;8.420;2022-11-18T16:18:21;3.40;;;1.65;;
20855;SDS011;63058;49.424;8.420;2022-11-18T16:20:46;3.50;;;1.63;;
20855;SDS011;63058;49.424;8.420;2022-11-18T16:23:13;2.58;;;1.67;;
20855;SDS011;63058;49.424;8.420;2022-11-18T16:25:42;3.08;;;1.58;;
20855;SDS011;63058;49.424;8.420;2022-11-18T16:28:08;2.70;;;1.63;;
20855;SDS011;63058;49.424;8.420;2022-11-18T16:30:34;4.18;;;1.92;;
20855;SDS011;63058;49.424;8.420;2022-11-18T16:33:18;2.38;;;1.60;;
20855;SDS011;63058;49.424;8.420;2022-11-18T16:35:47;1.98;;;1.00;;
20855;SDS011;63058;49.424;8.420;2022-11-18T16:38:12;2.60;;;0.95;;
20855;SDS011;63058;49.424;8.420;2022-11-18T16:40:38;1.75;;;0.90;;
20855;SDS011;63058;49.424;8.420;2022-11-18T16:43:04;2.55;;;0.77;;
20855;SDS011;63058;49.424;8.420;2022-11-18T16:45:29;1.85;;;0.70;;
20855;SDS011;63058;49.424;8.420;2022-11-18T16:47:55;2.63;;;0.70;;
20855;SDS011;63058;49.424;8.420;2022-11-18T16:50:20;2.20;;;0.70;;
20855;SDS011;63058;49.424;8.420;2022-11-18T16:52:46;2.17;;;0.70;;
20855;SDS011;63058;49.424;8.420;2022-11-18T16:55:11;1.23;;;0.80;;
20855;SDS011;63058;49.424;8.420;2022-11-18T16:57:37;2.00;;;0.80;;
20855;SDS011;63058;49.424;8.420;2022-11-18T17:00:03;2.50;;;0.80;;
20855;SDS011;63058;49.424;8.420;2022-11-18T17:02:29;2.35;;;0.73;;
20855;SDS011;63058;49.424;8.420;2022-11-18T17:04:55;1.95;;;0.80;;
20855;SDS011;63058;49.424;8.420;2022-11-18T17:07:20;1.15;;;0.82;;
20855;SDS011;63058;49.424;8.420;2022-11-18T17:09:46;2.28;;;0.80;;
20855;SDS011;63058;49.424;8.420;2022-11-18T17:12:11;4.00;;;1.00;;
20855;SDS011;63058;49.424;8.420;2022-11-18T17:14:37;1.55;;;0.80;;
20855;SDS011;63058;49.424;8.420;2022-11-18T17:17:04;1.65;;;0.95;;
20855;SDS011;63058;49.424;8.420;2022-11-18T17:19:30;2.83;;;1.08;;